Terminal Aerodrome Forecast
Issued by NWS Jackson, MS

Home | Current Version | Previous Version | Text Only | Print | Product List | Glossary On
Versions: 1 2 3 4 5 6 7 8 9 10 11 12 13 14
931
FTUS44 KJAN 282320
TAFGLH
TAF
KGLH 282320Z 2900/2924 07005KT P6SM SKC
     FM291300 10010KT P6SM -SHRA OVC050
     FM291600 14011KT P6SM -TSRA OVC025CB
     FM291800 05006KT 6SM -TSRA OVC050CB
     FM292100 07010KT P6SM -RA OVC050=

USA.gov is the U.S. government's official web portal to all federal, state and local government web resources and services.